Time;durP1;ratioP1;P1;durP2;ratioP2;P2;SDS_P1;SDS_P2;PMS_P1;PMS_P2;Temp;Humidity;BMP_temperature;BMP_pressure;BME280_temperature;BME280_humidity;BME280_pressure;Samples;Min_cycle;Max_cycle;Signal;HPM_P1;HPM_P2
2022/04/02 00:01:14;;;;;;;5.40;2.60;;;2.60;85.00;;;;;;5091496;28;20039;-55
2022/04/02 00:03:40;;;;;;;4.70;2.45;;;2.60;85.20;;;;;;5091358;28;20046;-55
2022/04/02 00:06:06;;;;;;;3.80;2.20;;;2.60;84.70;;;;;;5090903;28;20046;-55
2022/04/02 00:08:32;;;;;;;6.35;2.80;;;2.60;85.60;;;;;;5091385;28;20556;-55
2022/04/02 00:10:57;;;;;;;4.32;2.40;;;2.60;86.10;;;;;;5090953;28;20760;-55
2022/04/02 00:13:23;;;;;;;6.93;2.40;;;2.50;85.90;;;;;;5073424;28;20483;-55
2022/04/02 00:15:49;;;;;;;3.67;2.20;;;2.50;86.60;;;;;;5056275;28;20496;-54
2022/04/02 00:18:15;;;;;;;5.88;2.50;;;2.50;85.80;;;;;;5072415;28;20089;-55
2022/04/02 00:20:41;;;;;;;4.20;2.40;;;2.40;86.70;;;;;;5090923;28;20028;-56
2022/04/02 00:23:39;;;;;;;5.63;2.60;;;2.40;87.40;;;;;;5072974;28;20039;-55
2022/04/02 00:25:58;;;;;;;5.22;2.45;;;2.30;88.10;;;;;;5086129;28;20054;-56
2022/04/02 00:28:24;;;;;;;4.07;2.20;;;2.30;88.40;;;;;;5091237;28;20443;-55
2022/04/02 00:30:49;;;;;;;4.68;2.50;;;2.30;88.50;;;;;;5089880;28;20085;-55
2022/04/02 00:33:15;;;;;;;5.07;2.50;;;2.20;89.20;;;;;;5105493;28;20040;-54
2022/04/02 00:35:40;;;;;;;6.35;2.45;;;2.20;89.70;;;;;;5115212;28;20518;-55
2022/04/02 00:38:07;;;;;;;5.82;2.50;;;2.10;90.10;;;;;;5097448;28;20035;-55
2022/04/02 00:40:33;;;;;;;8.18;2.58;;;2.10;90.40;;;;;;5102898;28;20039;-55
2022/04/02 00:42:58;;;;;;;6.18;2.63;;;2.00;90.70;;;;;;5111712;28;20435;-55
2022/04/02 00:45:24;;;;;;;6.75;2.55;;;2.00;90.90;;;;;;5112432;28;20039;-54
2022/04/02 00:47:49;;;;;;;4.70;2.63;;;2.00;91.00;;;;;;5098545;28;20395;-53
2022/04/02 00:50:15;;;;;;;6.25;2.53;;;2.00;91.00;;;;;;5103504;28;20513;-54
2022/04/02 00:52:40;;;;;;;4.60;2.63;;;2.00;90.90;;;;;;5108979;28;20130;-55
2022/04/02 00:55:06;;;;;;;5.28;2.50;;;2.00;91.10;;;;;;5110410;28;20142;-55
2022/04/02 00:57:33;;;;;;;5.68;2.60;;;1.90;91.20;;;;;;5087682;28;20040;-55
2022/04/02 00:59:58;;;;;;;5.93;2.47;;;1.90;91.50;;;;;;5074267;28;20048;-55
2022/04/02 01:02:24;;;;;;;4.72;2.60;;;1.90;91.80;;;;;;5076177;28;20036;-55
2022/04/02 01:04:50;;;;;;;8.45;2.75;;;1.80;91.70;;;;;;5094194;28;20032;-55
2022/04/02 01:07:18;;;;;;;5.22;2.55;;;1.80;91.90;;;;;;5093779;28;20507;-55
2022/04/02 01:09:44;;;;;;;5.25;2.40;;;1.80;92.30;;;;;;5094210;28;20040;-55
2022/04/02 01:12:09;;;;;;;6.00;2.90;;;1.80;92.40;;;;;;5094052;28;20036;-55
2022/04/02 01:14:35;;;;;;;4.55;2.40;;;1.70;92.60;;;;;;5093533;28;20044;-55
2022/04/02 01:17:01;;;;;;;5.55;2.50;;;1.60;92.90;;;;;;5093900;28;20064;-55
2022/04/02 01:19:28;;;;;;;5.65;2.42;;;1.60;93.10;;;;;;5075834;28;20040;-55
2022/04/02 01:21:54;;;;;;;6.32;2.63;;;1.60;93.50;;;;;;5067816;22;20046;-56
2022/04/02 01:24:19;;;;;;;6.43;2.65;;;1.60;93.70;;;;;;5014084;28;20073;-55
2022/04/02 01:26:45;;;;;;;6.97;2.80;;;1.50;93.90;;;;;;5013658;28;20065;-56
2022/04/02 01:29:11;;;;;;;5.80;2.60;;;1.50;94.20;;;;;;5014199;28;20060;-56
2022/04/02 01:31:37;;;;;;;4.25;2.30;;;1.50;94.50;;;;;;5013867;28;20047;-56
2022/04/02 01:34:02;;;;;;;5.15;2.30;;;1.50;94.90;;;;;;5013746;28;20096;-56
2022/04/02 01:36:28;;;;;;;6.60;2.55;;;1.50;95.30;;;;;;5013543;28;20041;-55
2022/04/02 01:38:54;;;;;;;4.93;2.50;;;1.50;95.10;;;;;;5013849;28;20038;-56
2022/04/02 01:41:20;;;;;;;6.03;2.65;;;1.50;95.30;;;;;;5013600;28;20452;-56
2022/04/02 01:43:46;;;;;;;4.75;2.60;;;1.50;95.50;;;;;;5012619;28;20034;-56
2022/04/02 01:46:12;;;;;;;5.15;2.60;;;1.50;95.90;;;;;;5017534;28;20042;-55
2022/04/02 01:48:39;;;;;;;6.65;2.83;;;1.50;95.90;;;;;;5033372;28;20116;-54
2022/04/02 01:51:04;;;;;;;5.07;2.67;;;1.60;95.40;;;;;;5033078;28;20102;-56
2022/04/02 01:53:31;;;;;;;5.07;2.53;;;1.60;95.50;;;;;;5033435;28;20041;-56
2022/04/02 01:55:57;;;;;;;5.47;2.75;;;1.60;95.50;;;;;;5004242;28;20119;-56
2022/04/02 01:58:22;;;;;;;4.63;2.40;;;1.60;95.30;;;;;;5013162;28;20125;-55
2022/04/02 02:00:48;;;;;;;5.18;2.42;;;1.60;95.30;;;;;;5013286;28;20095;-56
2022/04/02 02:03:14;;;;;;;6.63;2.85;;;1.60;95.50;;;;;;5017326;28;20033;-56
2022/04/02 02:05:40;;;;;;;5.93;2.60;;;1.50;95.80;;;;;;5032902;28;20037;-56
2022/04/02 02:08:07;;;;;;;6.05;2.80;;;1.50;96.00;;;;;;5017720;28;20045;-56
2022/04/02 02:10:33;;;;;;;5.28;2.78;;;1.50;96.10;;;;;;5002093;28;20502;-55
2022/04/02 02:12:59;;;;;;;5.20;2.50;;;1.50;96.30;;;;;;5013196;28;20041;-54
2022/04/02 02:15:26;;;;;;;6.25;2.80;;;1.40;96.30;;;;;;5012911;28;20498;-56
2022/04/02 02:17:53;;;;;;;7.10;2.70;;;1.40;96.60;;;;;;5004899;28;20060;-55
2022/04/02 02:20:20;;;;;;;6.78;2.45;;;1.40;96.90;;;;;;4992298;28;20045;-56
2022/04/02 02:22:47;;;;;;;7.25;2.88;;;1.40;97.10;;;;;;5014914;28;20095;-56
2022/04/02 02:25:14;;;;;;;6.18;2.95;;;1.40;97.40;;;;;;5016608;28;20042;-56
2022/04/02 02:27:41;;;;;;;6.63;2.72;;;1.30;97.60;;;;;;5012837;28;20402;-54
2022/04/02 02:30:08;;;;;;;5.05;2.53;;;1.30;97.80;;;;;;5012858;28;20042;-56
2022/04/02 02:32:36;;;;;;;9.85;2.88;;;1.30;98.10;;;;;;5012392;28;20046;-57
2022/04/02 02:38:14;;;;;;;5.55;2.83;;;1.20;98.70;;;;;;5023130;28;20048;-56
2022/04/02 02:40:41;;;;;;;5.60;2.70;;;1.20;98.70;;;;;;5012494;28;20049;-56
2022/04/02 02:43:07;;;;;;;5.18;2.35;;;1.10;99.00;;;;;;5012304;28;20045;-56
2022/04/02 02:45:34;;;;;;;7.93;3.10;;;1.10;99.50;;;;;;5012592;28;20052;-56
2022/04/02 02:48:00;;;;;;;5.05;2.72;;;1.10;99.60;;;;;;5012385;28;20405;-56
2022/04/02 02:50:26;;;;;;;5.75;2.70;;;1.00;99.80;;;;;;5001295;28;20038;-56
2022/04/02 02:52:52;;;;;;;6.25;2.67;;;1.00;99.90;;;;;;5010020;28;20042;-56
2022/04/02 02:55:18;;;;;;;6.25;2.90;;;1.00;99.90;;;;;;5012743;28;20041;-55
2022/04/02 02:57:45;;;;;;;5.45;2.65;;;0.90;99.90;;;;;;4994624;28;20046;-55
2022/04/02 03:00:12;;;;;;;10.13;3.00;;;1.00;99.90;;;;;;4994619;28;20080;-56
2022/04/02 03:02:37;;;;;;;8.90;2.83;;;0.90;99.90;;;;;;5012293;28;20545;-55
2022/04/02 03:05:10;;;;;;;9.50;2.90;;;0.90;99.90;;;;;;5012339;28;20070;-56
2022/04/02 03:07:50;;;;;;;5.63;2.80;;;0.90;99.90;;;;;;5011900;28;20562;-56
2022/04/02 03:10:23;;;;;;;7.20;3.20;;;0.90;99.90;;;;;;5012403;28;20077;-56
2022/04/02 03:12:53;;;;;;;8.80;3.22;;;0.90;99.90;;;;;;5012560;28;20057;-55
2022/04/02 03:15:19;;;;;;;6.07;3.33;;;0.90;99.90;;;;;;5012388;28;20440;-56
2022/04/02 03:17:46;;;;;;;7.82;2.97;;;0.90;99.90;;;;;;5008999;28;20061;-55
2022/04/02 03:20:13;;;;;;;6.55;3.10;;;1.00;99.90;;;;;;5009968;28;20037;-56
2022/04/02 03:22:40;;;;;;;7.82;3.20;;;1.00;99.90;;;;;;5011778;28;20060;-55
2022/04/02 03:25:10;;;;;;;6.80;3.13;;;1.00;99.90;;;;;;5011847;28;20502;-55
2022/04/02 03:27:37;;;;;;;4.93;2.78;;;0.90;99.90;;;;;;5011758;28;20133;-56
2022/04/02 03:30:05;;;;;;;7.43;3.28;;;1.00;99.90;;;;;;5012214;28;20046;-56
2022/04/02 03:32:31;;;;;;;6.93;3.10;;;1.00;99.90;;;;;;5002214;28;20038;-55
2022/04/02 03:34:57;;;;;;;6.47;2.88;;;1.00;99.90;;;;;;4977062;28;20594;-54
2022/04/02 03:37:24;;;;;;;8.18;3.28;;;1.00;99.90;;;;;;5004933;28;20038;-56
2022/04/02 03:39:50;;;;;;;9.52;3.50;;;0.90;99.90;;;;;;4992330;28;20039;-56
2022/04/02 03:42:16;;;;;;;7.07;3.38;;;0.90;99.90;;;;;;4999976;28;20042;-56
2022/04/02 03:44:42;;;;;;;9.10;2.95;;;0.90;99.90;;;;;;4993236;28;20129;-56
2022/04/02 03:47:10;;;;;;;6.30;3.03;;;0.90;99.90;;;;;;4991908;28;20486;-56
2022/04/02 03:49:38;;;;;;;9.43;3.10;;;0.80;99.90;;;;;;5010874;28;20409;-56
2022/04/02 03:52:04;;;;;;;6.30;2.90;;;0.80;99.90;;;;;;5003196;28;20520;-56
2022/04/02 03:54:30;;;;;;;8.05;2.92;;;0.80;99.90;;;;;;4993989;28;20417;-56
2022/04/02 03:56:55;;;;;;;7.38;3.13;;;0.80;99.90;;;;;;4992624;28;20046;-56
2022/04/02 03:59:21;;;;;;;6.45;3.15;;;0.80;99.90;;;;;;4991991;28;20038;-56
2022/04/02 04:01:46;;;;;;;5.68;2.80;;;0.80;99.90;;;;;;4999250;28;20040;-56
2022/04/02 04:04:13;;;;;;;5.07;2.85;;;0.80;99.90;;;;;;5004195;28;20100;-56
2022/04/02 04:06:38;;;;;;;5.53;3.08;;;0.80;99.90;;;;;;5013694;28;20100;-56
2022/04/02 04:09:04;;;;;;;5.53;3.05;;;0.80;99.90;;;;;;5015702;28;20049;-56
2022/04/02 04:11:30;;;;;;;6.57;3.25;;;0.80;99.90;;;;;;5014748;28;20569;-56
2022/04/02 04:13:56;;;;;;;6.85;3.03;;;0.80;99.90;;;;;;5015259;28;20406;-57
2022/04/02 04:16:22;;;;;;;7.07;3.03;;;0.80;99.90;;;;;;5014609;28;20050;-56
2022/04/02 04:18:48;;;;;;;8.38;2.95;;;0.80;99.90;;;;;;5016046;28;20115;-56
2022/04/02 04:21:14;;;;;;;6.32;3.13;;;0.70;99.90;;;;;;5034864;28;20485;-56
2022/04/02 04:23:40;;;;;;;7.05;3.00;;;0.80;99.90;;;;;;5017465;28;20037;-56
2022/04/02 04:26:06;;;;;;;8.50;3.40;;;0.70;99.90;;;;;;4989223;28;20133;-55
2022/04/02 04:28:32;;;;;;;8.13;3.17;;;0.80;99.90;;;;;;5008207;28;20129;-55
2022/04/02 04:30:58;;;;;;;9.23;3.33;;;0.80;99.90;;;;;;5008738;28;20391;-55
2022/04/02 04:33:23;;;;;;;6.75;3.20;;;0.80;99.90;;;;;;5014732;28;20391;-55
2022/04/02 04:35:49;;;;;;;8.70;3.35;;;0.80;99.90;;;;;;5010531;28;20050;-56
2022/04/02 04:38:14;;;;;;;5.97;3.28;;;0.80;99.90;;;;;;5015698;28;20061;-56
2022/04/02 04:40:40;;;;;;;6.90;3.53;;;0.70;99.90;;;;;;5014657;28;20045;-56
2022/04/02 04:43:07;;;;;;;7.60;3.05;;;0.70;99.90;;;;;;5014786;28;20117;-56
2022/04/02 04:45:33;;;;;;;9.50;3.40;;;0.70;99.90;;;;;;5014132;28;20410;-56
2022/04/02 04:47:59;;;;;;;8.05;2.90;;;0.70;99.90;;;;;;5014324;28;20042;-56
2022/04/02 04:50:26;;;;;;;7.15;3.30;;;0.70;99.90;;;;;;4990022;28;20038;-56
2022/04/02 04:52:52;;;;;;;9.02;3.40;;;0.70;99.90;;;;;;5015330;28;20124;-56
2022/04/02 04:55:18;;;;;;;9.25;3.30;;;0.70;99.90;;;;;;5004188;28;20177;-56
2022/04/02 04:57:44;;;;;;;6.20;3.08;;;0.70;99.90;;;;;;4977395;28;20484;-56
2022/04/02 05:00:10;;;;;;;6.60;3.28;;;0.60;99.90;;;;;;5010881;28;20117;-56
2022/04/02 05:02:35;;;;;;;6.78;3.03;;;0.70;99.90;;;;;;4997006;28;20056;-56
2022/04/02 05:05:01;;;;;;;7.13;3.10;;;0.70;99.90;;;;;;5014034;28;20046;-57
2022/04/02 05:07:28;;;;;;;8.32;3.28;;;0.70;99.90;;;;;;5014146;28;20041;-56
2022/04/02 05:09:53;;;;;;;7.82;2.97;;;0.60;99.90;;;;;;4997640;28;20114;-56
2022/04/02 05:12:19;;;;;;;8.93;3.03;;;0.60;99.90;;;;;;5013876;28;20121;-56
2022/04/02 05:14:45;;;;;;;7.70;2.90;;;0.60;99.90;;;;;;5014077;28;20414;-57
2022/04/02 05:17:11;;;;;;;10.80;3.40;;;0.60;99.90;;;;;;5011473;28;20038;-56
2022/04/02 05:19:37;;;;;;;7.65;3.15;;;0.60;99.90;;;;;;5014118;28;20038;-56
2022/04/02 05:22:03;;;;;;;6.60;3.10;;;0.60;99.90;;;;;;5014180;28;20041;-56
2022/04/02 05:24:28;;;;;;;7.43;3.10;;;0.60;99.90;;;;;;5014092;28;20477;-56
2022/04/02 05:26:55;;;;;;;9.18;3.45;;;0.60;99.90;;;;;;5014068;28;20406;-56
2022/04/02 05:29:21;;;;;;;6.85;3.22;;;0.60;99.90;;;;;;5013806;28;20110;-56
2022/04/02 05:31:47;;;;;;;8.45;3.42;;;0.60;99.90;;;;;;5013643;28;20348;-56
2022/04/02 05:34:12;;;;;;;7.63;3.60;;;0.60;99.90;;;;;;5009622;28;20065;-56
2022/04/02 05:36:41;;;;;;;10.35;3.70;;;0.60;99.90;;;;;;5002366;28;20057;-56
2022/04/02 05:39:07;;;;;;;6.55;2.88;;;0.60;99.90;;;;;;4960744;28;20035;-57
2022/04/02 05:41:32;;;;;;;7.20;2.90;;;0.60;99.90;;;;;;5011840;28;20034;-57
2022/04/02 05:43:58;;;;;;;8.35;2.72;;;0.70;99.90;;;;;;5015788;28;20037;-56
2022/04/02 05:46:23;;;;;;;7.93;3.30;;;0.70;99.90;;;;;;5015394;28;20038;-57
2022/04/02 05:48:49;;;;;;;7.18;3.20;;;0.70;99.90;;;;;;5015392;28;20518;-56
2022/04/02 05:51:15;;;;;;;11.00;3.30;;;0.70;99.90;;;;;;5010962;28;20042;-57
2022/04/02 05:53:40;;;;;;;6.22;2.88;;;0.80;99.90;;;;;;4999627;28;20430;-57
2022/04/02 05:56:06;;;;;;;6.75;2.67;;;0.80;99.90;;;;;;5002738;28;20038;-56
2022/04/02 05:58:32;;;;;;;8.95;3.30;;;0.90;99.90;;;;;;5001889;28;20414;-56
2022/04/02 06:00:57;;;;;;;6.90;3.05;;;1.00;99.90;;;;;;4993585;28;20045;-56
2022/04/02 06:03:24;;;;;;;6.22;3.03;;;1.00;99.90;;;;;;4993727;28;20117;-56
2022/04/02 06:05:50;;;;;;;8.93;2.80;;;1.10;99.90;;;;;;4985564;28;20128;-55
2022/04/02 06:08:16;;;;;;;7.78;2.75;;;1.10;99.90;;;;;;5013071;28;20048;-55
2022/04/02 06:10:44;;;;;;;5.65;2.78;;;1.20;99.90;;;;;;5013132;28;20050;-55
2022/04/02 06:13:10;;;;;;;5.97;3.10;;;1.30;99.90;;;;;;5013174;28;20049;-55
2022/04/02 06:15:35;;;;;;;7.57;3.05;;;1.40;99.90;;;;;;5007366;28;20042;-55
2022/04/02 06:18:01;;;;;;;11.02;3.00;;;1.50;99.90;;;;;;5009854;28;20406;-55
2022/04/02 06:20:27;;;;;;;9.75;2.90;;;1.60;99.90;;;;;;5013010;28;20073;-55
2022/04/02 06:22:53;;;;;;;8.07;3.00;;;1.70;99.90;;;;;;5012073;28;20506;-55
2022/04/02 06:25:19;;;;;;;4.90;2.40;;;1.80;99.90;;;;;;5012688;28;20107;-56
2022/04/02 06:27:46;;;;;;;5.45;2.78;;;2.00;99.90;;;;;;5012916;28;20437;-55
2022/04/02 06:30:14;;;;;;;6.32;2.90;;;2.10;99.90;;;;;;5000136;28;20410;-55
2022/04/02 06:32:40;;;;;;;6.38;3.05;;;2.20;99.90;;;;;;4993363;28;20174;-54
2022/04/02 06:35:06;;;;;;;9.75;3.47;;;2.20;99.90;;;;;;5008909;28;20578;-56
2022/04/02 06:37:34;;;;;;;6.15;3.25;;;2.20;99.90;;;;;;4998220;28;20041;-56
2022/04/02 06:39:59;;;;;;;9.48;3.33;;;2.20;99.90;;;;;;4994027;28;20038;-56
2022/04/02 06:42:25;;;;;;;6.50;3.22;;;2.20;99.90;;;;;;4999860;28;20034;-56
2022/04/02 06:44:50;;;;;;;5.90;2.80;;;2.20;99.90;;;;;;4995268;28;20046;-56
2022/04/02 06:47:16;;;;;;;6.82;2.90;;;2.20;99.90;;;;;;4996905;28;20037;-56
2022/04/02 06:49:42;;;;;;;6.50;3.15;;;2.20;99.90;;;;;;4993481;28;20525;-56
2022/04/02 06:52:07;;;;;;;7.10;3.25;;;2.30;99.90;;;;;;4996578;28;20372;-56
2022/04/02 06:54:33;;;;;;;7.20;3.05;;;2.30;99.90;;;;;;4996730;28;20035;-56
2022/04/02 06:56:59;;;;;;;7.22;3.15;;;2.30;99.90;;;;;;4993094;28;20169;-56
2022/04/02 06:59:25;;;;;;;9.73;3.42;;;2.40;99.90;;;;;;4994987;28;20126;-55
2022/04/02 07:01:51;;;;;;;6.53;3.15;;;2.40;99.90;;;;;;4978739;28;20046;-55
2022/04/02 07:04:17;;;;;;;8.73;2.63;;;2.50;99.90;;;;;;4994869;28;20045;-55
2022/04/02 07:06:45;;;;;;;10.68;2.90;;;2.60;99.90;;;;;;5002616;28;20497;-56
2022/04/02 07:09:14;;;;;;;9.65;3.30;;;2.60;99.90;;;;;;4994578;28;20039;-56
2022/04/02 07:11:40;;;;;;;8.65;3.30;;;2.70;99.90;;;;;;4994632;28;20048;-56
2022/04/02 07:14:06;;;;;;;8.60;3.25;;;2.70;99.90;;;;;;4994441;28;20030;-56
2022/04/02 07:16:32;;;;;;;6.10;2.92;;;2.70;99.90;;;;;;5003495;28;20046;-55
2022/04/02 07:19:00;;;;;;;10.15;3.30;;;2.70;99.90;;;;;;5003898;28;20491;-55
2022/04/02 07:21:27;;;;;;;9.52;3.60;;;2.80;99.90;;;;;;5026521;23;20036;-53
2022/04/02 07:23:53;;;;;;;9.35;3.10;;;2.90;99.90;;;;;;5073521;28;20487;-50
2022/04/02 07:26:19;;;;;;;9.73;2.92;;;2.90;99.90;;;;;;5091321;28;20069;-53
2022/04/02 07:28:46;;;;;;;8.70;3.13;;;3.00;99.90;;;;;;5091958;28;20075;-53
2022/04/02 07:31:11;;;;;;;10.68;3.13;;;3.10;99.90;;;;;;5091219;28;20074;-51
2022/04/02 07:33:37;;;;;;;8.27;3.00;;;3.20;99.90;;;;;;5085964;28;20067;-53
2022/04/02 07:36:08;;;;;;;7.22;3.17;;;3.20;99.90;;;;;;5088584;28;20123;-52
2022/04/02 07:39:04;;;;;;;6.28;2.83;;;3.30;99.90;;;;;;5084552;28;20036;-53
2022/04/02 07:41:42;;;;;;;6.32;3.20;;;3.50;99.90;;;;;;5081480;28;20032;-51
2022/04/02 07:44:21;;;;;;;6.63;3.08;;;3.50;99.90;;;;;;5056393;28;20043;-53
2022/04/02 07:46:48;;;;;;;8.57;2.97;;;3.70;99.90;;;;;;5059463;28;20450;-54
2022/04/02 07:49:20;;;;;;;7.72;3.00;;;3.90;99.90;;;;;;5073243;28;20127;-55
2022/04/02 07:51:52;;;;;;;8.88;3.20;;;3.90;99.90;;;;;;5083258;28;20086;-52
2022/04/02 07:54:22;;;;;;;5.60;2.67;;;4.00;99.90;;;;;;5082804;28;20048;-52
2022/04/02 07:56:50;;;;;;;7.32;3.10;;;4.00;99.90;;;;;;5073868;28;20041;-53
2022/04/02 07:59:42;;;;;;;6.43;2.90;;;4.10;99.90;;;;;;5082417;28;20102;-53
2022/04/02 08:02:36;;;;;;;9.55;2.85;;;4.20;99.90;;;;;;5074215;28;20040;-53
2022/04/02 08:05:02;;;;;;;9.82;3.50;;;4.30;99.90;;;;;;5073669;28;20128;-54
2022/04/02 08:07:30;;;;;;;6.10;2.88;;;4.30;99.90;;;;;;5078925;28;20060;-53
2022/04/02 08:09:57;;;;;;;6.15;3.13;;;4.50;99.90;;;;;;5077913;28;20036;-54
2022/04/02 08:12:24;;;;;;;7.57;3.13;;;4.60;99.90;;;;;;5077369;28;20040;-53
2022/04/02 08:14:51;;;;;;;6.25;3.00;;;4.70;99.90;;;;;;5078044;28;20063;-51
2022/04/02 08:17:19;;;;;;;5.68;2.63;;;4.80;99.90;;;;;;5089986;28;20036;-53
2022/04/02 08:19:45;;;;;;;10.93;3.20;;;4.80;99.90;;;;;;5090103;28;20055;-54
2022/04/02 08:22:11;;;;;;;5.18;2.42;;;4.80;99.90;;;;;;5090381;28;20036;-54
2022/04/02 08:24:36;;;;;;;8.07;3.08;;;5.00;99.90;;;;;;5090837;28;20038;-52
2022/04/02 08:27:07;;;;;;;6.05;2.90;;;5.10;99.90;;;;;;5090794;28;20131;-53
2022/04/02 08:30:12;;;;;;;5.72;2.40;;;5.10;99.90;;;;;;5089272;28;20032;-54
2022/04/02 08:33:11;;;;;;;6.20;2.92;;;5.10;99.90;;;;;;5088549;28;20109;-53
2022/04/02 08:36:04;;;;;;;5.15;2.50;;;5.20;99.80;;;;;;5085420;28;20044;-52
2022/04/02 08:38:43;;;;;;;7.60;2.85;;;5.30;99.40;;;;;;5080249;28;20043;-54
2022/04/02 08:41:29;;;;;;;7.25;3.10;;;5.30;98.40;;;;;;5080142;28;20114;-51
2022/04/02 08:44:12;;;;;;;7.60;3.00;;;5.40;98.20;;;;;;5079094;28;20524;-54
2022/04/02 08:46:52;;;;;;;6.10;2.63;;;5.60;97.60;;;;;;5075273;28;20044;-54
2022/04/02 08:49:34;;;;;;;8.00;3.80;;;5.60;97.40;;;;;;5078766;28;20396;-54
2022/04/02 08:52:19;;;;;;;7.25;2.60;;;5.70;96.90;;;;;;5075477;28;20047;-54
2022/04/02 08:54:55;;;;;;;4.55;2.47;;;5.80;94.50;;;;;;5083195;28;20039;-51
2022/04/02 08:57:32;;;;;;;6.65;2.72;;;5.70;93.70;;;;;;5087574;28;20042;-54
2022/04/02 09:00:00;;;;;;;5.68;2.38;;;5.70;93.90;;;;;;5083212;28;20169;-51
2022/04/02 09:03:03;;;;;;;5.35;2.35;;;5.70;92.60;;;;;;5088352;28;20043;-54
2022/04/02 09:06:06;;;;;;;6.05;2.47;;;5.60;92.30;;;;;;5086920;28;20035;-54
2022/04/02 09:08:35;;;;;;;10.13;2.38;;;5.50;91.70;;;;;;5091024;28;20138;-52
2022/04/02 09:11:23;;;;;;;5.18;2.35;;;5.50;92.30;;;;;;5085754;28;20131;-54
2022/04/02 09:14:00;;;;;;;8.00;2.53;;;5.40;92.80;;;;;;5091660;28;20063;-53
2022/04/02 09:16:49;;;;;;;5.15;2.28;;;5.20;93.40;;;;;;5084170;28;20048;-53
2022/04/02 09:19:27;;;;;;;5.80;2.92;;;5.10;94.50;;;;;;5084672;28;20047;-51
2022/04/02 09:22:04;;;;;;;9.23;3.35;;;5.00;95.10;;;;;;5089514;28;20524;-53
2022/04/02 09:24:57;;;;;;;11.60;4.00;;;4.80;96.20;;;;;;5084708;28;20040;-52
2022/04/02 09:27:26;;;;;;;5.57;2.72;;;4.70;97.30;;;;;;5089893;28;20036;-50
2022/04/02 09:29:57;;;;;;;5.40;2.50;;;4.60;97.80;;;;;;5078006;28;20040;-51
2022/04/02 09:32:48;;;;;;;8.03;2.77;;;4.50;98.20;;;;;;5085395;28;20123;-52
2022/04/02 09:35:36;;;;;;;10.27;2.60;;;4.50;98.80;;;;;;5082972;28;20131;-50
2022/04/02 09:38:30;;;;;;;10.70;5.10;;;4.40;98.80;;;;;;5078116;28;20036;-51
2022/04/02 09:41:24;;;;;;;12.52;5.50;;;4.30;99.90;;;;;;5069558;28;20565;-50
2022/04/02 09:44:11;;;;;;;13.77;6.50;;;4.40;99.90;;;;;;5038365;28;20040;-50
2022/04/02 09:46:52;;;;;;;14.48;6.22;;;4.40;99.90;;;;;;5080284;28;20059;-50
2022/04/02 09:49:49;;;;;;;8.63;3.67;;;4.40;99.90;;;;;;5079159;28;20476;-51
2022/04/02 09:52:21;;;;;;;7.45;3.75;;;4.30;99.90;;;;;;5076907;28;20377;-51
2022/04/02 09:55:07;;;;;;;6.90;2.80;;;4.30;99.90;;;;;;5078854;28;20322;-51
2022/04/02 09:57:38;;;;;;;5.85;2.47;;;4.40;99.90;;;;;;5074530;28;20040;-53
2022/04/02 10:00:08;;;;;;;5.15;2.30;;;4.30;99.90;;;;;;5072736;28;20500;-51
2022/04/02 10:03:00;;;;;;;6.22;2.13;;;4.20;99.90;;;;;;5085312;28;20027;-56
2022/04/02 10:05:45;;;;;;;6.40;2.42;;;4.40;99.90;;;;;;5081571;28;20044;-52
2022/04/02 10:08:27;;;;;;;6.05;2.55;;;4.30;99.80;;;;;;5080090;28;20036;-52
2022/04/02 10:10:56;;;;;;;8.13;3.00;;;4.40;99.90;;;;;;5077310;28;20032;-55
2022/04/02 10:13:22;;;;;;;4.00;2.25;;;4.40;99.90;;;;;;5077633;28;20086;-52
2022/04/02 10:15:51;;;;;;;7.13;2.78;;;4.50;99.90;;;;;;5083690;28;20086;-54
2022/04/02 10:18:22;;;;;;;5.00;3.10;;;4.50;99.90;;;;;;5075689;28;20036;-52
2022/04/02 10:20:51;;;;;;;9.38;3.08;;;4.60;99.90;;;;;;5074606;28;20045;-52
2022/04/02 10:23:21;;;;;;;7.45;3.17;;;4.70;99.90;;;;;;5080626;28;20032;-54
2022/04/02 10:26:23;;;;;;;4.75;1.73;;;4.80;99.90;;;;;;5081980;28;20613;-54
2022/04/02 10:28:53;;;;;;;11.40;2.97;;;5.00;97.70;;;;;;5029346;28;20041;-52
2022/04/02 10:31:35;;;;;;;9.80;2.65;;;5.10;96.90;;;;;;5070064;28;20145;-55
2022/04/02 10:34:11;;;;;;;10.40;3.87;;;5.00;96.50;;;;;;5077040;28;20050;-52
2022/04/02 10:36:44;;;;;;;8.13;3.58;;;4.70;97.90;;;;;;5076728;28;20106;-52
2022/04/02 10:39:14;;;;;;;5.38;2.08;;;4.60;98.70;;;;;;5077059;28;20037;-51
2022/04/02 10:41:44;;;;;;;4.18;1.65;;;4.60;98.50;;;;;;5082255;28;20496;-54
2022/04/02 10:44:31;;;;;;;7.45;2.25;;;4.50;99.30;;;;;;5079531;28;20036;-52
2022/04/02 10:47:01;;;;;;;9.68;3.03;;;4.40;99.90;;;;;;5081115;28;20392;-52
2022/04/02 10:49:33;;;;;;;5.72;2.42;;;4.40;99.70;;;;;;5086117;28;20115;-52
2022/04/02 10:52:02;;;;;;;4.05;2.05;;;4.50;96.30;;;;;;5086528;28;20051;-56
2022/04/02 10:54:29;;;;;;;2.35;1.30;;;4.50;96.50;;;;;;5088957;28;20043;-53
2022/04/02 10:56:55;;;;;;;3.65;1.80;;;4.70;96.80;;;;;;5084271;28;20053;-53
2022/04/02 10:59:21;;;;;;;2.47;1.45;;;4.70;96.50;;;;;;5083874;28;20437;-52
2022/04/02 11:01:52;;;;;;;3.67;1.60;;;4.60;96.90;;;;;;5083706;28;20556;-52
2022/04/02 11:04:48;;;;;;;6.20;2.20;;;4.60;97.20;;;;;;5077106;28;20040;-53
2022/04/02 11:07:29;;;;;;;3.67;1.90;;;4.60;98.60;;;;;;5081748;28;20044;-53
2022/04/02 11:09:56;;;;;;;6.45;2.03;;;4.60;99.60;;;;;;5082507;28;20047;-52
2022/04/02 11:12:41;;;;;;;5.53;1.80;;;4.80;99.50;;;;;;5080657;28;20097;-55
2022/04/02 11:15:17;;;;;;;3.00;1.90;;;4.80;99.20;;;;;;5070949;28;20094;-52
2022/04/02 11:17:46;;;;;;;6.93;2.20;;;5.00;99.40;;;;;;5085055;28;20048;-53
2022/04/02 11:20:12;;;;;;;5.53;1.80;;;5.30;97.20;;;;;;5066617;28;20313;-55
2022/04/02 11:22:46;;;;;;;3.75;1.52;;;5.50;95.80;;;;;;5076858;28;20059;-55
2022/04/02 11:25:25;;;;;;;6.57;1.70;;;5.70;93.30;;;;;;5080189;28;20515;-55
2022/04/02 11:27:58;;;;;;;3.88;1.85;;;5.80;91.50;;;;;;5086137;28;20032;-53
2022/04/02 11:30:32;;;;;;;4.30;1.80;;;5.60;92.70;;;;;;5079087;28;20139;-55
2022/04/02 11:33:14;;;;;;;5.35;2.05;;;5.60;92.10;;;;;;5087290;28;20036;-55
2022/04/02 11:35:51;;;;;;;3.10;1.40;;;5.70;91.90;;;;;;5083706;28;20118;-52
2022/04/02 11:38:20;;;;;;;3.55;1.58;;;5.70;90.00;;;;;;5069357;28;20028;-54
2022/04/02 11:41:02;;;;;;;2.80;1.65;;;5.80;87.00;;;;;;5080465;28;20040;-53
2022/04/02 11:43:37;;;;;;;3.38;1.60;;;5.90;86.70;;;;;;5073841;28;20237;-54
2022/04/02 11:46:06;;;;;;;4.60;1.88;;;6.00;84.50;;;;;;5072158;28;20487;-55
2022/04/02 11:48:36;;;;;;;6.13;1.85;;;6.00;86.30;;;;;;5079235;28;20415;-52
2022/04/02 11:51:17;;;;;;;3.13;1.50;;;6.10;88.90;;;;;;5078305;28;20036;-52
2022/04/02 11:53:44;;;;;;;4.07;1.85;;;6.10;86.80;;;;;;5085563;28;20032;-52
2022/04/02 11:56:26;;;;;;;3.25;1.80;;;5.90;86.80;;;;;;5082146;28;20052;-52
2022/04/02 11:58:57;;;;;;;4.05;1.52;;;5.80;87.70;;;;;;5083865;28;20509;-52
2022/04/02 12:01:23;;;;;;;4.80;1.50;;;5.80;85.50;;;;;;5084350;28;20027;-53
2022/04/02 12:04:07;;;;;;;6.50;1.77;;;5.70;86.30;;;;;;5079075;28;20037;-53
2022/04/02 12:06:36;;;;;;;2.80;1.58;;;5.60;88.60;;;;;;5084396;28;20529;-53
2022/04/02 12:09:23;;;;;;;3.35;1.67;;;5.50;89.50;;;;;;5078963;28;20036;-53
2022/04/02 12:11:49;;;;;;;4.70;2.10;;;5.50;92.60;;;;;;5080205;28;21772;-54
2022/04/02 12:14:31;;;;;;;7.85;2.00;;;5.30;93.80;;;;;;5080076;28;20050;-55
2022/04/02 12:17:02;;;;;;;4.53;1.80;;;5.20;95.10;;;;;;5075593;28;20075;-53
2022/04/02 12:19:41;;;;;;;4.20;1.83;;;5.00;96.10;;;;;;5080462;28;20071;-54
2022/04/02 12:22:31;;;;;;;5.60;2.40;;;5.00;96.00;;;;;;5079619;28;20488;-51
2022/04/02 12:24:59;;;;;;;6.00;1.88;;;5.00;96.00;;;;;;5084820;28;20400;-53
2022/04/02 12:27:30;;;;;;;4.60;2.13;;;5.00;94.80;;;;;;5082919;28;20044;-53
2022/04/02 12:29:58;;;;;;;4.25;1.85;;;5.10;93.30;;;;;;5088908;28;20043;-54
2022/04/02 12:32:34;;;;;;;6.03;1.90;;;5.20;93.50;;;;;;5086134;28;20047;-55
2022/04/02 12:35:09;;;;;;;6.55;1.95;;;5.30;92.10;;;;;;5070693;28;20404;-52
2022/04/02 12:37:49;;;;;;;3.42;1.63;;;5.50;92.10;;;;;;5094460;28;20042;-55
2022/04/02 12:40:40;;;;;;;4.60;1.73;;;5.70;90.10;;;;;;5078695;28;20032;-55
2022/04/02 12:43:11;;;;;;;3.20;1.45;;;6.00;82.00;;;;;;5094398;28;20040;-55
2022/04/02 12:45:38;;;;;;;3.13;1.40;;;6.20;77.00;;;;;;5094518;28;20036;-55
2022/04/02 12:48:10;;;;;;;3.00;1.65;;;6.30;76.60;;;;;;5094176;28;20046;-54
2022/04/02 12:51:01;;;;;;;6.35;1.63;;;6.30;79.50;;;;;;5094390;28;20076;-55
2022/04/02 12:53:41;;;;;;;2.45;1.33;;;6.40;73.50;;;;;;5076070;28;20143;-55
2022/04/02 12:56:16;;;;;;;5.20;1.73;;;6.30;74.90;;;;;;5093922;28;20058;-51
2022/04/02 12:58:44;;;;;;;4.65;1.90;;;6.30;81.00;;;;;;5092049;28;20420;-52
2022/04/02 13:01:21;;;;;;;6.53;1.80;;;6.30;82.40;;;;;;5093565;28;20066;-53
2022/04/02 13:04:01;;;;;;;4.85;1.73;;;6.40;79.90;;;;;;5093450;28;20047;-52
2022/04/02 13:06:34;;;;;;;5.93;1.80;;;6.50;83.20;;;;;;5092309;28;20044;-55
2022/04/02 13:09:04;;;;;;;8.27;1.90;;;6.60;77.70;;;;;;5087630;28;20119;-54
2022/04/02 13:12:04;;;;;;;4.78;1.67;;;6.60;79.60;;;;;;5084334;28;20040;-54
2022/04/02 13:14:33;;;;;;;4.82;1.75;;;6.80;75.30;;;;;;5088202;28;20040;-55
2022/04/02 13:17:18;;;;;;;3.90;1.63;;;6.90;69.40;;;;;;5086458;28;20511;-52